createdAt,value
2023-04-13T00:01:45.938Z,10.20
2023-04-13T00:04:31.440Z,10.20
2023-04-13T00:07:18.287Z,10.30
2023-04-13T00:10:05.108Z,10.30
2023-04-13T00:12:50.692Z,10.20
2023-04-13T00:15:38.005Z,10.20
2023-04-13T00:18:24.068Z,10.20
2023-04-13T00:21:09.498Z,10.10
2023-04-13T00:23:54.863Z,10.10
2023-04-13T00:26:40.200Z,10.20
2023-04-13T00:29:25.429Z,10.10
2023-04-13T00:32:10.850Z,10.00
2023-04-13T00:34:56.182Z,10.00
2023-04-13T00:37:43.125Z,9.90
2023-04-13T00:40:28.929Z,10.00
2023-04-13T00:43:14.963Z,9.90
2023-04-13T00:46:00.797Z,9.80
2023-04-13T00:48:48.227Z,9.80
2023-04-13T00:51:33.257Z,9.70
2023-04-13T00:54:19.240Z,9.70
2023-04-13T00:57:05.548Z,9.60
2023-04-13T00:59:54.725Z,9.60
2023-04-13T01:02:42.417Z,9.60
2023-04-13T01:05:31.811Z,9.50
2023-04-13T01:08:29.453Z,9.50
2023-04-13T01:11:25.628Z,9.40
2023-04-13T01:14:24.381Z,9.30
2023-04-13T01:17:16.912Z,9.30
2023-04-13T01:20:16.238Z,9.50
2023-04-13T01:23:07.459Z,9.50
2023-04-13T01:25:59.630Z,9.50
2023-04-13T01:28:47.261Z,9.40
2023-04-13T01:31:35.820Z,9.30
2023-04-13T01:34:23.322Z,9.40
2023-04-13T01:37:09.994Z,9.40
2023-04-13T01:39:55.159Z,9.30
2023-04-13T01:42:41.440Z,9.40
2023-04-13T01:45:29.493Z,9.50
2023-04-13T01:48:28.123Z,9.50
2023-04-13T01:51:25.097Z,9.50
2023-04-13T01:54:16.624Z,9.50
2023-04-13T01:57:02.192Z,9.50
2023-04-13T01:59:47.425Z,9.50
2023-04-13T02:02:32.800Z,9.50
2023-04-13T02:05:17.884Z,9.50
2023-04-13T02:08:05.360Z,9.40
2023-04-13T02:10:51.258Z,9.40
2023-04-13T02:13:36.518Z,9.50
2023-04-13T02:16:22.013Z,9.50
2023-04-13T02:19:07.375Z,9.40
2023-04-13T02:21:53.437Z,9.40
2023-04-13T02:24:38.888Z,9.30
2023-04-13T02:27:24.176Z,9.30
2023-04-13T02:30:10.228Z,9.30
2023-04-13T02:32:56.079Z,9.20
2023-04-13T02:35:41.414Z,9.00
2023-04-13T02:38:30.870Z,9.00
2023-04-13T02:41:16.301Z,9.00
2023-04-13T02:44:01.890Z,9.00
2023-04-13T02:46:47.468Z,9.00
2023-04-13T02:49:33.103Z,9.10
2023-04-13T02:52:18.271Z,9.00
2023-04-13T02:55:05.047Z,9.00
2023-04-13T02:57:50.447Z,9.10
2023-04-13T03:00:36.063Z,9.10
2023-04-13T03:03:21.216Z,9.10
2023-04-13T03:06:06.922Z,9.10
2023-04-13T03:08:52.286Z,9.10
2023-04-13T03:11:37.715Z,9.10
2023-04-13T03:14:23.147Z,9.00
2023-04-13T03:17:08.673Z,9.00
2023-04-13T03:19:54.232Z,9.00
2023-04-13T03:22:40.207Z,8.90
2023-04-13T03:25:25.758Z,8.90
2023-04-13T03:28:11.385Z,8.80
2023-04-13T03:30:56.653Z,8.80
2023-04-13T03:33:42.105Z,8.80
2023-04-13T03:36:27.713Z,8.60
2023-04-13T03:39:12.773Z,8.60
2023-04-13T03:41:58.234Z,8.60
2023-04-13T03:44:43.591Z,8.50
2023-04-13T03:47:29.108Z,8.50
2023-04-13T03:50:14.582Z,8.50
2023-04-13T03:52:59.752Z,8.40
2023-04-13T03:55:45.352Z,8.40
2023-04-13T03:58:30.830Z,8.40
2023-04-13T04:01:16.546Z,8.30
2023-04-13T04:04:02.291Z,8.30
2023-04-13T04:06:47.962Z,8.30
2023-04-13T04:09:33.391Z,8.30
2023-04-13T04:12:18.587Z,8.30
2023-04-13T04:15:05.296Z,8.30
2023-04-13T04:17:51.212Z,8.30
2023-04-13T04:20:36.829Z,8.20
2023-04-13T04:23:23.123Z,8.20
2023-04-13T04:26:08.282Z,8.20
2023-04-13T04:28:53.698Z,8.20
2023-04-13T04:31:43.882Z,8.20
2023-04-13T04:34:29.854Z,8.10
2023-04-13T04:37:20.810Z,8.10
2023-04-13T04:40:09.301Z,8.00
2023-04-13T04:42:54.437Z,8.10
2023-04-13T04:45:43.523Z,8.00
2023-04-13T04:48:31.724Z,8.10
2023-04-13T04:51:17.211Z,8.20
2023-04-13T04:54:03.779Z,8.00
2023-04-13T04:56:49.656Z,8.00
2023-04-13T04:59:34.986Z,7.80
2023-04-13T05:02:20.543Z,7.90
2023-04-13T05:05:07.089Z,7.90
2023-04-13T05:07:52.557Z,8.00
2023-04-13T05:10:44.071Z,8.00
2023-04-13T05:13:29.272Z,7.90
2023-04-13T05:16:14.698Z,8.00
2023-04-13T05:19:00.395Z,8.10
2023-04-13T05:21:46.078Z,8.10
2023-04-13T05:24:33.598Z,8.10
2023-04-13T05:27:18.706Z,8.10
2023-04-13T05:30:05.592Z,8.20
2023-04-13T05:32:50.728Z,8.30
2023-04-13T05:35:37.503Z,8.20
2023-04-13T05:38:22.887Z,8.30
2023-04-13T05:41:08.865Z,8.40
2023-04-13T05:43:54.233Z,8.30
2023-04-13T05:46:39.837Z,8.30
2023-04-13T05:49:25.980Z,8.30
2023-04-13T05:52:11.153Z,8.30
2023-04-13T05:54:58.059Z,8.30
2023-04-13T05:57:43.380Z,8.30
2023-04-13T06:00:29.430Z,8.20
2023-04-13T06:03:17.134Z,8.20
2023-04-13T06:06:04.689Z,8.20
2023-04-13T06:08:50.242Z,8.30
2023-04-13T06:11:36.625Z,8.20
2023-04-13T06:14:22.269Z,8.20
2023-04-13T06:17:07.644Z,8.10
2023-04-13T06:19:54.365Z,8.10
2023-04-13T06:22:39.375Z,8.20
2023-04-13T06:25:25.518Z,8.30
2023-04-13T06:28:11.930Z,8.30
2023-04-13T06:30:57.319Z,8.40
2023-04-13T06:33:43.261Z,8.40
2023-04-13T06:36:28.812Z,8.50
2023-04-13T06:39:14.277Z,8.50
2023-04-13T06:42:01.024Z,8.60
2023-04-13T06:44:45.998Z,8.60
2023-04-13T06:47:32.069Z,8.70
2023-04-13T06:50:17.231Z,8.70
2023-04-13T06:53:02.478Z,8.80
2023-04-13T06:55:48.263Z,8.80
2023-04-13T06:58:33.329Z,8.80
2023-04-13T07:01:18.798Z,8.80
2023-04-13T07:04:06.951Z,8.80
2023-04-13T07:06:52.705Z,8.70
2023-04-13T07:09:38.213Z,8.70
2023-04-13T07:12:23.672Z,8.70
2023-04-13T07:15:09.511Z,8.80
2023-04-13T07:17:55.973Z,8.70
2023-04-13T07:20:41.476Z,8.80
2023-04-13T07:23:26.593Z,8.70
2023-04-13T07:26:15.411Z,8.60
2023-04-13T07:29:00.913Z,8.60
2023-04-13T07:31:47.656Z,8.80
2023-04-13T07:34:33.705Z,8.80
2023-04-13T07:37:19.325Z,8.90
2023-04-13T07:40:05.383Z,8.90
2023-04-13T07:42:50.803Z,9.00
2023-04-13T07:45:36.400Z,8.80
2023-04-13T07:48:21.887Z,8.80
2023-04-13T07:51:15.420Z,8.90
2023-04-13T07:54:01.187Z,8.90
2023-04-13T07:56:46.446Z,8.80
2023-04-13T07:59:32.052Z,8.90
2023-04-13T08:02:18.291Z,8.90
2023-04-13T08:05:04.405Z,8.80
2023-04-13T08:07:49.833Z,8.90
2023-04-13T08:10:35.634Z,8.80
2023-04-13T08:13:21.552Z,8.80
2023-04-13T08:16:08.549Z,8.80
2023-04-13T08:18:53.768Z,9.00
2023-04-13T08:21:41.679Z,9.00
2023-04-13T08:24:27.477Z,9.10
2023-04-13T08:27:12.903Z,9.10
2023-04-13T08:30:01.716Z,9.10
2023-04-13T08:32:47.009Z,9.20
2023-04-13T08:35:32.581Z,9.30
2023-04-13T08:38:19.492Z,9.20
2023-04-13T08:41:04.880Z,9.20
2023-04-13T08:43:54.351Z,9.10
2023-04-13T08:46:42.487Z,9.20
2023-04-13T08:49:28.969Z,9.10
2023-04-13T08:52:16.731Z,9.20
2023-04-13T08:55:05.676Z,9.20
2023-04-13T08:57:53.683Z,9.20
2023-04-13T09:00:41.707Z,9.20
2023-04-13T09:03:33.798Z,9.20
2023-04-13T09:06:25.954Z,9.30
2023-04-13T09:09:14.656Z,9.20
2023-04-13T09:12:00.034Z,9.20
2023-04-13T09:14:45.460Z,9.40
2023-04-13T09:17:32.357Z,9.40
2023-04-13T09:20:22.751Z,9.30
2023-04-13T09:23:16.072Z,9.30
2023-04-13T09:26:08.500Z,9.40
2023-04-13T09:28:57.571Z,9.60
2023-04-13T09:31:45.516Z,9.70
2023-04-13T09:34:31.409Z,9.90
2023-04-13T09:37:18.467Z,10.00
2023-04-13T09:40:11.670Z,10.00
2023-04-13T09:42:59.774Z,9.90
2023-04-13T09:45:44.902Z,9.90
2023-04-13T09:48:54.721Z,10.00
2023-04-13T09:51:41.885Z,9.90
2023-04-13T09:54:33.262Z,9.80
2023-04-13T09:57:28.967Z,9.90
2023-04-13T10:00:20.452Z,10.10
2023-04-13T10:03:10.941Z,10.20
2023-04-13T10:06:00.422Z,10.40
2023-04-13T10:08:46.423Z,10.30
2023-04-13T10:11:37.670Z,10.20
2023-04-13T10:14:31.006Z,10.10
2023-04-13T10:17:34.375Z,10.00
2023-04-13T10:20:20.625Z,10.10
2023-04-13T10:23:07.302Z,10.10
2023-04-13T10:25:54.371Z,9.90
2023-04-13T10:28:47.872Z,9.80
2023-04-13T10:31:40.607Z,9.90
2023-04-13T10:34:27.693Z,10.10
2023-04-13T10:37:24.388Z,10.00
2023-04-13T10:40:10.412Z,10.10
2023-04-13T10:42:55.651Z,10.20
2023-04-13T10:45:41.129Z,10.20
2023-04-13T10:48:26.396Z,10.30
2023-04-13T10:51:11.700Z,10.30
2023-04-13T10:54:07.246Z,10.30
2023-04-13T10:57:06.330Z,10.30
2023-04-13T10:59:58.694Z,10.40
2023-04-13T11:02:45.425Z,10.40
2023-04-13T11:05:31.112Z,10.30
2023-04-13T11:08:20.793Z,10.30
2023-04-13T11:11:06.696Z,10.30
2023-04-13T11:13:52.393Z,10.50
2023-04-13T11:16:45.222Z,10.60
2023-04-13T11:19:30.745Z,10.60
2023-04-13T11:22:19.205Z,10.60
2023-04-13T11:25:11.274Z,10.60
2023-04-13T11:27:58.700Z,10.70
2023-04-13T11:30:53.367Z,10.50
2023-04-13T11:33:40.438Z,10.60
2023-04-13T11:36:26.502Z,10.40
2023-04-13T11:39:14.812Z,10.20
2023-04-13T11:42:07.984Z,10.30
2023-04-13T11:44:53.489Z,10.40
2023-04-13T11:47:38.805Z,10.50
2023-04-13T11:50:26.085Z,10.50
2023-04-13T11:53:11.823Z,10.50
2023-04-13T11:55:57.188Z,10.50
2023-04-13T11:58:42.792Z,10.40
2023-04-13T12:01:34.240Z,10.40
2023-04-13T12:04:22.401Z,10.50
2023-04-13T12:07:14.053Z,10.70
2023-04-13T12:10:05.476Z,10.90
2023-04-13T12:13:15.729Z,11.00
2023-04-13T12:16:10.566Z,11.10
2023-04-13T12:19:13.333Z,11.30
2023-04-13T12:22:00.639Z,11.30
2023-04-13T12:24:47.445Z,11.40
2023-04-13T12:27:40.157Z,11.50
2023-04-13T12:30:26.341Z,11.70
2023-04-13T12:33:12.307Z,11.70
2023-04-13T12:35:57.564Z,11.90
2023-04-13T12:38:43.168Z,12.00
2023-04-13T12:41:28.541Z,12.00
2023-04-13T12:44:14.798Z,12.10
2023-04-13T12:47:00.601Z,12.00
2023-04-13T12:49:45.930Z,12.00
2023-04-13T12:52:32.414Z,12.00
2023-04-13T12:55:18.254Z,11.90
2023-04-13T12:58:03.674Z,12.00
2023-04-13T13:00:49.422Z,12.10
2023-04-13T13:03:36.680Z,12.20
2023-04-13T13:06:22.561Z,12.10
2023-04-13T13:09:08.248Z,12.10
2023-04-13T13:11:53.722Z,12.00
2023-04-13T13:14:39.552Z,12.10
2023-04-13T13:17:25.165Z,12.20
2023-04-13T13:20:12.653Z,12.00
2023-04-13T13:22:58.152Z,11.90
2023-04-13T13:25:56.996Z,12.00
2023-04-13T13:28:50.681Z,12.10
2023-04-13T13:31:36.372Z,12.20
2023-04-13T13:34:21.730Z,12.10
2023-04-13T13:37:07.437Z,12.10
2023-04-13T13:39:52.870Z,12.10
2023-04-13T13:42:50.717Z,12.10
2023-04-13T13:45:37.731Z,12.30
2023-04-13T13:48:24.007Z,12.30
2023-04-13T13:51:09.453Z,12.20
2023-04-13T13:53:54.807Z,12.30
2023-04-13T13:56:40.177Z,12.20
2023-04-13T13:59:25.673Z,12.20
2023-04-13T14:02:11.236Z,11.90
2023-04-13T14:04:56.774Z,11.80
2023-04-13T14:07:45.782Z,11.70
2023-04-13T14:10:31.144Z,11.80
2023-04-13T14:13:16.994Z,11.70
2023-04-13T14:16:02.587Z,11.60
2023-04-13T14:18:49.063Z,11.50
2023-04-13T14:21:35.079Z,11.50
2023-04-13T14:24:20.190Z,11.60
2023-04-13T14:27:06.101Z,11.50
2023-04-13T14:29:51.531Z,11.60
2023-04-13T14:32:36.827Z,11.60
2023-04-13T14:35:22.322Z,11.50
2023-04-13T14:38:08.371Z,11.30
2023-04-13T14:40:53.763Z,11.40
2023-04-13T14:43:39.211Z,11.30
2023-04-13T14:46:27.873Z,11.20
2023-04-13T14:49:16.158Z,11.40
2023-04-13T14:52:01.678Z,11.40
2023-04-13T14:54:48.705Z,11.40
2023-04-13T14:57:34.114Z,11.60
2023-04-13T15:00:26.219Z,11.60
2023-04-13T15:03:13.128Z,11.60
2023-04-13T15:06:03.765Z,11.50
2023-04-13T15:08:50.486Z,11.70
2023-04-13T15:11:37.185Z,11.50
2023-04-13T15:14:22.377Z,11.60
2023-04-13T15:17:08.616Z,11.60
2023-04-13T15:19:54.092Z,11.70
2023-04-13T15:22:39.503Z,11.70
2023-04-13T15:25:25.756Z,11.60
2023-04-13T15:28:10.882Z,11.70
2023-04-13T15:30:56.330Z,11.50
2023-04-13T15:33:41.829Z,11.70
2023-04-13T15:36:27.776Z,11.70
2023-04-13T15:39:13.158Z,11.80
2023-04-13T15:42:00.272Z,11.80
2023-04-13T15:44:45.251Z,11.90
2023-04-13T15:47:32.593Z,12.00
2023-04-13T15:50:18.974Z,12.00
2023-04-13T15:53:04.528Z,12.00
2023-04-13T15:55:50.058Z,12.00
2023-04-13T15:58:35.901Z,11.90
2023-04-13T16:01:21.186Z,12.00
2023-04-13T16:04:06.890Z,12.10
2023-04-13T16:07:05.172Z,11.90
2023-04-13T16:09:58.269Z,11.90
2023-04-13T16:12:46.347Z,11.90
2023-04-13T16:15:31.456Z,12.00
2023-04-13T16:18:16.977Z,12.10
2023-04-13T16:21:03.531Z,12.20
2023-04-13T16:23:48.774Z,12.20
2023-04-13T16:26:35.081Z,12.30
2023-04-13T16:29:20.622Z,12.30
2023-04-13T16:32:06.221Z,12.20
2023-04-13T16:34:51.720Z,12.20
2023-04-13T16:37:38.939Z,12.10
2023-04-13T16:40:24.484Z,12.20
2023-04-13T16:43:09.932Z,12.10
2023-04-13T16:45:55.635Z,12.10
2023-04-13T16:48:40.828Z,12.10
2023-04-13T16:51:27.149Z,12.20
2023-04-13T16:54:13.901Z,12.20
2023-04-13T16:56:59.516Z,12.20
2023-04-13T16:59:44.808Z,12.10
2023-04-13T17:02:31.646Z,12.10
2023-04-13T17:05:16.972Z,12.00
2023-04-13T17:08:04.124Z,11.80
2023-04-13T17:10:52.852Z,11.80
2023-04-13T17:13:37.974Z,11.90
2023-04-13T17:16:24.509Z,11.90
2023-04-13T17:19:09.932Z,11.90
2023-04-13T17:21:55.284Z,11.80
2023-04-13T17:24:40.864Z,11.90
2023-04-13T17:27:26.596Z,11.80
2023-04-13T17:30:12.969Z,11.80
2023-04-13T17:32:58.702Z,11.80
2023-04-13T17:35:44.234Z,11.70
2023-04-13T17:38:29.670Z,11.70
2023-04-13T17:41:15.134Z,11.70
2023-04-13T17:44:01.123Z,11.70
2023-04-13T17:46:47.042Z,11.70
2023-04-13T17:49:33.437Z,11.60
2023-04-13T17:52:18.595Z,11.60
2023-04-13T17:55:04.347Z,11.70
2023-04-13T17:57:49.752Z,11.90
2023-04-13T18:00:35.481Z,11.90
2023-04-13T18:03:20.812Z,11.90
2023-04-13T18:06:07.161Z,11.80
2023-04-13T18:08:52.741Z,11.70
2023-04-13T18:11:38.060Z,11.60
2023-04-13T18:14:23.420Z,11.60
2023-04-13T18:17:08.801Z,11.50
2023-04-13T18:19:54.336Z,11.40
2023-04-13T18:22:39.584Z,11.40
2023-04-13T18:25:24.904Z,11.40
2023-04-13T18:28:10.438Z,11.40
2023-04-13T18:31:00.425Z,11.40
2023-04-13T18:33:45.941Z,11.40
2023-04-13T18:36:31.173Z,11.30
2023-04-13T18:39:17.081Z,11.40
2023-04-13T18:42:03.564Z,11.40
2023-04-13T18:44:49.005Z,11.40
2023-04-13T18:47:35.284Z,11.20
2023-04-13T18:50:20.691Z,11.10
2023-04-13T18:53:06.105Z,11.00
2023-04-13T18:55:52.448Z,10.90
2023-04-13T18:58:38.149Z,10.80
2023-04-13T19:01:23.483Z,10.80
2023-04-13T19:04:09.010Z,10.80
2023-04-13T19:06:54.222Z,10.80
2023-04-13T19:09:39.717Z,10.80
2023-04-13T19:12:25.279Z,10.80
2023-04-13T19:15:11.085Z,11.00
2023-04-13T19:17:56.884Z,10.90
2023-04-13T19:20:42.542Z,10.90
2023-04-13T19:23:28.285Z,10.90
2023-04-13T19:26:13.479Z,10.80
2023-04-13T19:29:00.333Z,10.60
2023-04-13T19:31:45.839Z,10.60
2023-04-13T19:34:31.354Z,10.60
2023-04-13T19:37:17.275Z,10.60
2023-04-13T19:40:05.229Z,10.70
2023-04-13T19:42:50.435Z,10.70
2023-04-13T19:45:35.968Z,10.70
2023-04-13T19:48:21.318Z,10.70
2023-04-13T19:51:06.732Z,10.70
2023-04-13T19:53:52.742Z,10.60
2023-04-13T19:56:38.320Z,10.60
2023-04-13T19:59:23.782Z,10.50
2023-04-13T20:02:09.768Z,10.50
2023-04-13T20:04:55.311Z,10.60
2023-04-13T20:07:40.962Z,10.50
2023-04-13T20:10:26.058Z,10.50
2023-04-13T20:13:11.423Z,10.40
2023-04-13T20:15:56.826Z,10.40
2023-04-13T20:18:43.709Z,10.50
2023-04-13T20:21:31.127Z,10.40
2023-04-13T20:24:16.854Z,10.30
2023-04-13T20:27:01.986Z,10.30
2023-04-13T20:29:48.738Z,10.20
2023-04-13T20:32:33.777Z,10.10
2023-04-13T20:35:19.916Z,10.10
2023-04-13T20:38:06.126Z,10.10
2023-04-13T20:40:51.542Z,10.10
2023-04-13T20:43:37.492Z,10.00
2023-04-13T20:46:25.227Z,10.00
2023-04-13T20:49:11.835Z,9.90
2023-04-13T20:51:57.789Z,9.90
2023-04-13T20:54:42.789Z,9.90
2023-04-13T20:57:28.240Z,9.90
2023-04-13T21:00:15.784Z,9.90
2023-04-13T21:03:01.491Z,9.90
2023-04-13T21:05:46.929Z,9.90
2023-04-13T21:08:32.480Z,9.90
2023-04-13T21:11:17.853Z,9.90
2023-04-13T21:14:04.543Z,9.90
2023-04-13T21:16:50.327Z,9.90
2023-04-13T21:19:37.817Z,9.80
2023-04-13T21:22:23.495Z,9.80
2023-04-13T21:25:09.170Z,9.80
2023-04-13T21:27:54.821Z,9.70
2023-04-13T21:30:40.335Z,9.80
2023-04-13T21:33:25.317Z,9.90
2023-04-13T21:38:59.757Z,9.90
2023-04-13T21:41:45.847Z,9.90
2023-04-13T21:44:31.042Z,9.80
2023-04-13T21:47:16.237Z,9.80
2023-04-13T21:50:01.692Z,9.70
2023-04-13T21:52:47.537Z,9.80
2023-04-13T21:55:32.563Z,9.80
2023-04-13T21:58:17.994Z,9.70
2023-04-13T22:01:03.353Z,9.70
2023-04-13T22:03:48.832Z,9.80
2023-04-13T22:06:34.116Z,9.80
2023-04-13T22:09:20.136Z,9.80
2023-04-13T22:12:05.856Z,9.70
2023-04-13T22:14:53.151Z,9.70
2023-04-13T22:17:38.284Z,9.70
2023-04-13T22:20:23.532Z,9.70
2023-04-13T22:23:08.925Z,9.70
2023-04-13T22:26:01.276Z,9.60
2023-04-13T22:28:46.937Z,9.60
2023-04-13T22:31:32.120Z,9.50
2023-04-13T22:34:17.468Z,9.50
2023-04-13T22:37:04.770Z,9.60
2023-04-13T22:39:50.058Z,9.60
2023-04-13T22:42:35.528Z,9.50
2023-04-13T22:45:21.098Z,9.50
2023-04-13T22:48:06.835Z,9.50
2023-04-13T22:50:52.264Z,9.50
2023-04-13T22:53:37.530Z,9.60
2023-04-13T22:56:22.926Z,9.60
2023-04-13T22:59:08.184Z,9.60
2023-04-13T23:01:53.673Z,9.50
2023-04-13T23:04:39.222Z,9.50
2023-04-13T23:07:24.290Z,9.40
2023-04-13T23:10:09.924Z,9.40
2023-04-13T23:12:55.395Z,9.50
2023-04-13T23:15:40.655Z,9.40
2023-04-13T23:18:26.129Z,9.40
2023-04-13T23:21:12.460Z,9.40
2023-04-13T23:23:58.159Z,9.40
2023-04-13T23:26:43.441Z,9.30
2023-04-13T23:29:28.975Z,9.30
2023-04-13T23:32:14.336Z,9.40
2023-04-13T23:35:00.786Z,9.40
2023-04-13T23:37:46.522Z,9.40
2023-04-13T23:40:31.736Z,9.90
2023-04-13T23:43:17.097Z,9.40
2023-04-13T23:46:02.949Z,9.40
2023-04-13T23:48:48.854Z,9.30
2023-04-13T23:51:34.319Z,9.30
2023-04-13T23:54:19.702Z,9.30
2023-04-13T23:57:05.449Z,9.30
2023-04-13T23:59:56.462Z,9.30
